METAR Data
IDs: Format: Raw Decoded Include TAF

Data at: 2315 UTC 25 Oct 2021

PADM 252256Z AUTO 32006KT 10SM CLR M01/M03 A2946 RMK AO2 SLP983 T10111033 FZRANO
PADM 252156Z AUTO VRB05KT 10SM CLR M02/M03 A2946 RMK AO2 SLP983 T10171033 FZRANO
PADM 252056Z AUTO 33003KT 10SM CLR M03/M05 A2946 RMK AO2 SLP980 T10331050 51007 FZRANO
PADM 251956Z AUTO 29003KT 10SM CLR M05/M06 A2945 RMK AO2 SLP979 T10501061 FZRANO
PADM 251856Z AUTO 30006KT 10SM CLR M07/M08 A2944 RMK AO2 SLP975 T10671078 FZRANO
PADM 251756Z AUTO 31007KT 10SM CLR M07/M08 A2943 RMK AO2 SLP973 T10671078 11033 21067 50002 FZRANO
PADM 251656Z AUTO 32006KT 10SM CLR M07/M07 A2944 RMK AO2 SLP974 T10671072 FZRANO
PADM 251556Z AUTO 31006KT 10SM FEW003 M06/M07 A2943 RMK AO2 SLP973 T10561067 FZRANO
PADM 251548Z AUTO 31005KT 10SM FEW003 M06/M07 A2943 RMK AO2 FZRANO
PADM 251528Z AUTO 31005KT 10SM BKN003 BKN036 M05/M06 A2943 RMK AO2 FZRANO
PADM 251456Z AUTO 31006KT 10SM SCT003 BKN036 M05/M06 A2943 RMK AO2 SLP972 T10501056 56002 FZRANO
PADM 251356Z AUTO 34004KT 10SM SCT005 OVC034 M04/M06 A2943 RMK AO2 SLP971 T10391056 FZRANO
PADM 251344Z AUTO 32006KT 10SM SCT007 OVC032 M03/M05 A2943 RMK AO2 FZRANO
PADM 251323Z AUTO 30007KT 10SM OVC030 M04/M05 A2943 RMK AO2 FZRANO
PADM 251256Z AUTO 31004KT 10SM OVC028 M04/M06 A2943 RMK AO2 SLP972 T10391056 FZRANO
PADM 251156Z AUTO 00000KT 10SM OVC026 M04/M06 A2944 RMK AO2 SLP974 T10391056 11028 21061 58006 FZRANO
PADM 251056Z AUTO 00000KT 10SM BKN026 OVC032 M05/M06 A2944 RMK AO2 SLP976 T10501061 FZRANO
PADM 250956Z AUTO 00000KT 10SM BKN032 M06/M07 A2945 RMK AO2 SLP979 T10561067 FZRANO
PADM 250856Z AUTO 02003KT 10SM SCT033 M06/M07 A2946 RMK AO2 SLP980 T10561072 56004 FZRANO
PADM 250756Z AUTO 00000KT 10SM OVC033 M04/M05 A2946 RMK AO2 SLP981 T10441050 400221050 FZRANO
PADM 250656Z AUTO 00000KT 10SM BKN033 M05/M06 A2946 RMK AO2 SLP981 T10501056 FZRANO
PADM 250556Z AUTO 00000KT 10SM FEW020 BKN031 M03/M04 A2947 RMK AO2 SNB15E37 SLP984 P0000 60000 T10281044 10017 21033 56009 FZRANO
PADM 250456Z AUTO 24003KT 10SM OVC036 M03/M04 A2948 RMK AO2 SLP988 T10331044 FZRANO
PADM 250356Z AUTO 00000KT 10SM FEW029 OVC040 M03/M04 A2948 RMK AO2 SLP989 T10281044 FZRANO
PADM 250256Z AUTO 00000KT 10SM FEW050 M02/M03 A2949 RMK AO2 SLP993 T10171033 56015 FZRANO
PADM 250156Z AUTO 24004KT 10SM BKN055 00/M04 A2950 RMK AO2 SLP996 T00001039 FZRANO
PADM 250056Z AUTO 26004KT 10SM FEW024 00/M05 A2952 RMK AO2 SLP002 T00001050 FZRANO
PADM 250003Z AUTO 20004KT 10SM SCT025 BKN030 01/M04 A2954 RMK AO2 FZRANO
PADM 242356Z AUTO 22004KT 10SM BKN023 BKN030 01/M04 A2954 RMK AO2 SLP008 60000 T00061039 10022 21022 58013 FZRANO
PADM 242256Z AUTO 22004KT 10SM FEW016 OVC022 01/M02 A2956 RMK AO2 SLP014 T00061022 FZRANO
PADM 242240Z AUTO 24006KT 10SM SCT012 OVC022 00/M03 A2956 RMK AO2 FZRANO
PADM 242156Z AUTO 22006KT 10SM BKN010 OVC065 01/M02 A2957 RMK AO2 SLP020 T00061022 FZRANO
PADM 242148Z AUTO 21005KT 10SM BKN010 OVC065 01/M02 A2957 RMK AO2 FZRANO
PADM 242056Z AUTO 22005KT 10SM BKN038 OVC065 M01/M02 A2958 RMK AO2 UPB25E37 SLP021 P0000 60000 T10111022 58001 FZRANO
PADM 242018Z AUTO 22005KT 10SM SCT009 BKN043 OVC065 M01/M02 A2958 RMK AO2 FZRANO
PADM 242003Z AUTO 22005KT 10SM SCT009 BKN024 OVC042 M02/M02 A2958 RMK AO2 FZRANO
PADM 241956Z AUTO 21007KT 10SM SCT007 BKN012 OVC036 M02/M03 A2958 RMK AO2 SLP023 T10171028 FZRANO
PADM 241947Z AUTO 21005KT 10SM SCT007 BKN026 OVC036 M02/M03 A2958 RMK AO2 FZRANO
PADM 241856Z AUTO 21005KT 10SM OVC007 M02/M03 A2958 RMK AO2 SLP022 T10221028 FZRANO
PADM 241810Z AUTO 20004KT 10SM OVC009 M02/M03 A2958 RMK AO2 FZRANO
PADM 241756Z AUTO 21003KT 10SM OVC012 M02/M03 A2958 RMK AO2 SLP023 T10221033 11022 21039 58006 FZRANO
PADM 241726Z AUTO 00000KT 10SM BKN014 OVC030 M03/M04 A2958 RMK AO2 FZRANO
PADM 241656Z AUTO 00000KT 10SM OVC030 M03/M04 A2959 RMK AO2 SLP026 T10281039 FZRANO
PADM 241647Z AUTO 00000KT 10SM FEW010 OVC030 M03/M04 A2959 RMK AO2 FZRANO
PADM 241556Z AUTO 00000KT 10SM FEW010 BKN019 OVC055 M04/M04 A2960 RMK AO2 SLP030 T10391044 FZRANO
PADM 241456Z AUTO VRB05KT 10SM BKN021 BKN048 M03/M04 A2960 RMK AO2 SLP029 T10331044 51009 FZRANO
PADM 241423Z AUTO 19004KT 10SM BKN021 M03/M04 A2960 RMK AO2 FZRANO
PADM 241356Z AUTO 18004KT 10SM FEW021 BKN038 M03/M04 A2959 RMK AO2 SLP027 T10331044 FZRANO
PADM 241312Z AUTO 17004KT 10SM FEW009 M03/M04 A2958 RMK AO2 FZRANO
PADM 241256Z AUTO 18004KT 10SM CLR M03/M03 A2959 RMK AO2 SLP025 T10281033 FZRANO
PADM 241156Z AUTO 22003KT 10SM FEW039 M02/M03 A2957 RMK AO2 SLP019 T10221033 10006 21022 51016 FZRANO